Wales, AK

5:39 AM AKDT on August 26, 2016 (GMT -0800)
Tin City LRRS | | Change Station

Elev 272 ft 65.56 °N, 167.92 °W | Updated 44 minutes ago

Fog
Fog
44 °F
Feels Like 37 °F
N
17
Wind Variable Wind from South

Today
High -- | Low -- °F
--% Chance of Precip.
Yesterday
High -- | Low -- °F
Precip. -- in
Pressure 30.22 in
Visibility 0.2 miles
Clouds
Windchill 37 °F
Dew Point 44 °F
Humidity 99%
Rainfall 0.00 in
Snow Depth Not available.
7:31 AM 10:52 PM
Waning Crescent, 34% visible
METAR PATC 261255Z AUTO 17015KT M1/4SM FG VV002 07/07 A3021 RMK AO2 SLP234 T00690068
Pressure 30.22 in
Visibility 0.2 miles
Clouds
Windchill 37 °F
Dew Point 44 °F
Humidity 99%
Rainfall 0.00 in
Snow Depth Not available.
7:31 AM 10:52 PM
Waning Crescent, 34% visible
METAR PATC 261255Z AUTO 17015KT M1/4SM FG VV002 07/07 A3021 RMK AO2 SLP234 T00690068

10-Day Weather Forecast

Almanac

Astronomy

Aug. 26, 2016 Rise Set
Actual Time
Civil Twilight
Nautical Twilight
Astronomical Twilight
Moon
Length of Visible Light
Length of Day
Tomorrow will be .
, % of the Moon is Illuminated

Today's Extremes

State Highs State Lows

Community

WunderPhotos

Upload Photos

1,935,084 photos uploaded!

WunderBlog® & News

Nearby

Air Quality

  Air Quality AQ Index Pollutant
Not available.

Snow Depth

Station Depth Elevation

Earthquake Activity

City Distance Mag. Time & Date
Minimum magnitude displayed is 2.5.

Coastal Water Temperatures

Place Temperature

Stations

Nearby Weather Stations

Station Location Temp. Windchill Dew Point Humidity Wind Precip. Elev Updated Type
                   

Watches & Warnings

There are currently no watches in effect.